sensor_id;sensor_type;location;lat;lon;timestamp;P1;durP1;ratioP1;P2;durP2;ratioP2
69754;SDS011;57023;52.218;5.158;2023-12-04T00:00:16;34.40;;;13.00;;
69754;SDS011;57023;52.218;5.158;2023-12-04T00:02:41;32.25;;;12.40;;
69754;SDS011;57023;52.218;5.158;2023-12-04T00:05:06;34.22;;;12.50;;
69754;SDS011;57023;52.218;5.158;2023-12-04T00:07:32;23.70;;;10.02;;
69754;SDS011;57023;52.218;5.158;2023-12-04T00:09:57;33.43;;;12.50;;
69754;SDS011;57023;52.218;5.158;2023-12-04T00:12:22;29.20;;;11.90;;
69754;SDS011;57023;52.218;5.158;2023-12-04T00:14:48;30.75;;;12.10;;
69754;SDS011;57023;52.218;5.158;2023-12-04T00:17:13;26.53;;;10.80;;
69754;SDS011;57023;52.218;5.158;2023-12-04T00:19:38;27.35;;;10.88;;
69754;SDS011;57023;52.218;5.158;2023-12-04T00:22:04;32.27;;;12.63;;
69754;SDS011;57023;52.218;5.158;2023-12-04T00:24:29;28.40;;;12.00;;
69754;SDS011;57023;52.218;5.158;2023-12-04T00:26:54;31.77;;;12.47;;
69754;SDS011;57023;52.218;5.158;2023-12-04T00:29:19;29.90;;;12.77;;
69754;SDS011;57023;52.218;5.158;2023-12-04T00:31:45;32.75;;;12.15;;
69754;SDS011;57023;52.218;5.158;2023-12-04T00:34:10;30.13;;;12.47;;
69754;SDS011;57023;52.218;5.158;2023-12-04T00:36:37;26.17;;;10.57;;
69754;SDS011;57023;52.218;5.158;2023-12-04T00:39:02;29.37;;;11.20;;
69754;SDS011;57023;52.218;5.158;2023-12-04T00:41:28;28.57;;;11.70;;
69754;SDS011;57023;52.218;5.158;2023-12-04T00:43:54;30.20;;;11.53;;
69754;SDS011;57023;52.218;5.158;2023-12-04T00:46:19;31.83;;;12.68;;
69754;SDS011;57023;52.218;5.158;2023-12-04T00:48:44;29.30;;;11.88;;
69754;SDS011;57023;52.218;5.158;2023-12-04T00:51:11;30.58;;;12.45;;
69754;SDS011;57023;52.218;5.158;2023-12-04T00:53:36;26.33;;;11.55;;
69754;SDS011;57023;52.218;5.158;2023-12-04T00:56:01;31.77;;;11.82;;
69754;SDS011;57023;52.218;5.158;2023-12-04T00:58:26;32.42;;;12.38;;
69754;SDS011;57023;52.218;5.158;2023-12-04T01:00:51;30.60;;;12.17;;
69754;SDS011;57023;52.218;5.158;2023-12-04T01:03:17;30.52;;;12.02;;
69754;SDS011;57023;52.218;5.158;2023-12-04T01:05:42;25.02;;;10.52;;
69754;SDS011;57023;52.218;5.158;2023-12-04T01:08:07;32.73;;;12.67;;
69754;SDS011;57023;52.218;5.158;2023-12-04T01:10:32;32.03;;;11.73;;
69754;SDS011;57023;52.218;5.158;2023-12-04T01:12:58;28.10;;;11.40;;
69754;SDS011;57023;52.218;5.158;2023-12-04T01:15:23;27.17;;;11.03;;
69754;SDS011;57023;52.218;5.158;2023-12-04T01:17:48;32.97;;;12.13;;
69754;SDS011;57023;52.218;5.158;2023-12-04T01:20:14;31.65;;;12.18;;
69754;SDS011;57023;52.218;5.158;2023-12-04T01:22:39;30.60;;;11.97;;
69754;SDS011;57023;52.218;5.158;2023-12-04T01:25:04;30.48;;;11.88;;
69754;SDS011;57023;52.218;5.158;2023-12-04T01:27:29;23.35;;;9.40;;
69754;SDS011;57023;52.218;5.158;2023-12-04T01:29:55;35.92;;;12.13;;
69754;SDS011;57023;52.218;5.158;2023-12-04T01:32:20;31.30;;;12.47;;
69754;SDS011;57023;52.218;5.158;2023-12-04T01:34:45;35.17;;;12.97;;
69754;SDS011;57023;52.218;5.158;2023-12-04T01:37:10;35.35;;;12.60;;
69754;SDS011;57023;52.218;5.158;2023-12-04T01:39:36;30.23;;;11.85;;
69754;SDS011;57023;52.218;5.158;2023-12-04T01:42:02;28.30;;;12.27;;
69754;SDS011;57023;52.218;5.158;2023-12-04T01:44:27;31.55;;;12.00;;
69754;SDS011;57023;52.218;5.158;2023-12-04T01:46:52;28.60;;;11.73;;
69754;SDS011;57023;52.218;5.158;2023-12-04T01:49:17;33.40;;;12.97;;
69754;SDS011;57023;52.218;5.158;2023-12-04T01:51:43;32.80;;;12.32;;
69754;SDS011;57023;52.218;5.158;2023-12-04T01:54:08;29.23;;;12.45;;
69754;SDS011;57023;52.218;5.158;2023-12-04T01:56:34;33.63;;;12.27;;
69754;SDS011;57023;52.218;5.158;2023-12-04T01:59:00;29.77;;;11.87;;
69754;SDS011;57023;52.218;5.158;2023-12-04T02:01:26;28.75;;;12.18;;
69754;SDS011;57023;52.218;5.158;2023-12-04T02:03:51;31.02;;;11.75;;
69754;SDS011;57023;52.218;5.158;2023-12-04T02:06:16;31.80;;;12.63;;
69754;SDS011;57023;52.218;5.158;2023-12-04T02:08:42;32.30;;;12.23;;
69754;SDS011;57023;52.218;5.158;2023-12-04T02:11:07;32.42;;;12.18;;
69754;SDS011;57023;52.218;5.158;2023-12-04T02:13:32;32.38;;;12.25;;
69754;SDS011;57023;52.218;5.158;2023-12-04T02:15:58;29.65;;;11.95;;
69754;SDS011;57023;52.218;5.158;2023-12-04T02:18:25;30.42;;;12.43;;
69754;SDS011;57023;52.218;5.158;2023-12-04T02:20:51;37.42;;;14.23;;
69754;SDS011;57023;52.218;5.158;2023-12-04T02:23:16;31.42;;;13.63;;
69754;SDS011;57023;52.218;5.158;2023-12-04T02:25:41;29.63;;;11.43;;
69754;SDS011;57023;52.218;5.158;2023-12-04T02:28:06;33.20;;;12.40;;
69754;SDS011;57023;52.218;5.158;2023-12-04T02:30:32;30.20;;;12.85;;
69754;SDS011;57023;52.218;5.158;2023-12-04T02:33:02;29.95;;;10.63;;
69754;SDS011;57023;52.218;5.158;2023-12-04T02:35:29;35.42;;;13.63;;
69754;SDS011;57023;52.218;5.158;2023-12-04T02:37:56;34.22;;;12.07;;
69754;SDS011;57023;52.218;5.158;2023-12-04T02:40:23;25.93;;;9.87;;
69754;SDS011;57023;52.218;5.158;2023-12-04T02:42:48;31.88;;;13.00;;
69754;SDS011;57023;52.218;5.158;2023-12-04T02:45:13;34.37;;;12.63;;
69754;SDS011;57023;52.218;5.158;2023-12-04T02:47:38;30.83;;;12.13;;
69754;SDS011;57023;52.218;5.158;2023-12-04T02:50:04;29.65;;;12.70;;
69754;SDS011;57023;52.218;5.158;2023-12-04T02:52:29;33.55;;;12.70;;
69754;SDS011;57023;52.218;5.158;2023-12-04T02:54:54;29.23;;;11.63;;
69754;SDS011;57023;52.218;5.158;2023-12-04T02:57:19;32.90;;;12.10;;
69754;SDS011;57023;52.218;5.158;2023-12-04T02:59:45;32.05;;;11.80;;
69754;SDS011;57023;52.218;5.158;2023-12-04T03:02:10;37.10;;;12.85;;
69754;SDS011;57023;52.218;5.158;2023-12-04T03:04:35;26.47;;;10.77;;
69754;SDS011;57023;52.218;5.158;2023-12-04T03:07:01;29.10;;;11.10;;
69754;SDS011;57023;52.218;5.158;2023-12-04T03:09:26;34.77;;;13.90;;
69754;SDS011;57023;52.218;5.158;2023-12-04T03:11:51;32.00;;;11.53;;
69754;SDS011;57023;52.218;5.158;2023-12-04T03:14:16;28.05;;;11.32;;
69754;SDS011;57023;52.218;5.158;2023-12-04T03:16:41;30.03;;;12.07;;
69754;SDS011;57023;52.218;5.158;2023-12-04T03:19:06;31.77;;;12.33;;
69754;SDS011;57023;52.218;5.158;2023-12-04T03:21:32;29.20;;;11.25;;
69754;SDS011;57023;52.218;5.158;2023-12-04T03:23:57;28.63;;;11.13;;
69754;SDS011;57023;52.218;5.158;2023-12-04T03:26:22;25.70;;;10.68;;
69754;SDS011;57023;52.218;5.158;2023-12-04T03:28:47;33.05;;;13.13;;
69754;SDS011;57023;52.218;5.158;2023-12-04T03:31:13;29.10;;;11.67;;
69754;SDS011;57023;52.218;5.158;2023-12-04T03:33:38;28.10;;;10.57;;
69754;SDS011;57023;52.218;5.158;2023-12-04T03:36:03;29.27;;;12.50;;
69754;SDS011;57023;52.218;5.158;2023-12-04T03:38:28;27.38;;;11.77;;
69754;SDS011;57023;52.218;5.158;2023-12-04T03:40:53;27.20;;;10.50;;
69754;SDS011;57023;52.218;5.158;2023-12-04T03:43:19;28.07;;;11.53;;
69754;SDS011;57023;52.218;5.158;2023-12-04T03:45:44;30.80;;;11.70;;
69754;SDS011;57023;52.218;5.158;2023-12-04T03:48:09;28.13;;;11.30;;
69754;SDS011;57023;52.218;5.158;2023-12-04T03:50:34;25.98;;;10.82;;
69754;SDS011;57023;52.218;5.158;2023-12-04T03:52:59;28.43;;;11.40;;
69754;SDS011;57023;52.218;5.158;2023-12-04T03:55:25;29.73;;;11.38;;
69754;SDS011;57023;52.218;5.158;2023-12-04T03:57:50;28.90;;;11.27;;
69754;SDS011;57023;52.218;5.158;2023-12-04T04:00:15;29.20;;;11.85;;
69754;SDS011;57023;52.218;5.158;2023-12-04T04:02:42;28.52;;;12.63;;
69754;SDS011;57023;52.218;5.158;2023-12-04T04:05:08;29.35;;;11.95;;
69754;SDS011;57023;52.218;5.158;2023-12-04T04:07:33;19.50;;;7.47;;
69754;SDS011;57023;52.218;5.158;2023-12-04T04:09:58;30.03;;;11.83;;
69754;SDS011;57023;52.218;5.158;2023-12-04T04:12:23;27.08;;;11.30;;
69754;SDS011;57023;52.218;5.158;2023-12-04T04:14:48;28.20;;;12.00;;
69754;SDS011;57023;52.218;5.158;2023-12-04T04:17:14;25.83;;;10.63;;
69754;SDS011;57023;52.218;5.158;2023-12-04T04:19:39;30.42;;;12.48;;
69754;SDS011;57023;52.218;5.158;2023-12-04T04:22:05;29.90;;;12.35;;
69754;SDS011;57023;52.218;5.158;2023-12-04T04:24:30;23.52;;;9.23;;
69754;SDS011;57023;52.218;5.158;2023-12-04T04:26:55;26.17;;;10.77;;
69754;SDS011;57023;52.218;5.158;2023-12-04T04:29:21;30.27;;;12.10;;
69754;SDS011;57023;52.218;5.158;2023-12-04T04:31:46;31.58;;;12.25;;
69754;SDS011;57023;52.218;5.158;2023-12-04T04:34:11;27.02;;;10.52;;
69754;SDS011;57023;52.218;5.158;2023-12-04T04:36:36;27.60;;;11.03;;
69754;SDS011;57023;52.218;5.158;2023-12-04T04:39:02;25.67;;;11.45;;
69754;SDS011;57023;52.218;5.158;2023-12-04T04:41:27;25.50;;;10.05;;
69754;SDS011;57023;52.218;5.158;2023-12-04T04:43:52;26.10;;;10.33;;
69754;SDS011;57023;52.218;5.158;2023-12-04T04:46:18;25.65;;;10.02;;
69754;SDS011;57023;52.218;5.158;2023-12-04T04:48:43;25.10;;;10.77;;
69754;SDS011;57023;52.218;5.158;2023-12-04T04:51:09;24.45;;;10.48;;
69754;SDS011;57023;52.218;5.158;2023-12-04T04:53:34;25.45;;;10.18;;
69754;SDS011;57023;52.218;5.158;2023-12-04T04:55:59;24.33;;;9.93;;
69754;SDS011;57023;52.218;5.158;2023-12-04T04:58:24;26.35;;;11.30;;
69754;SDS011;57023;52.218;5.158;2023-12-04T05:00:49;22.50;;;10.03;;
69754;SDS011;57023;52.218;5.158;2023-12-04T05:03:15;26.93;;;11.23;;
69754;SDS011;57023;52.218;5.158;2023-12-04T05:05:40;20.17;;;9.40;;
69754;SDS011;57023;52.218;5.158;2023-12-04T05:08:05;24.97;;;10.73;;
69754;SDS011;57023;52.218;5.158;2023-12-04T05:10:30;23.23;;;9.27;;
69754;SDS011;57023;52.218;5.158;2023-12-04T05:12:55;21.23;;;10.25;;
69754;SDS011;57023;52.218;5.158;2023-12-04T05:15:21;23.48;;;10.57;;
69754;SDS011;57023;52.218;5.158;2023-12-04T05:17:46;21.37;;;9.13;;
69754;SDS011;57023;52.218;5.158;2023-12-04T05:20:12;22.55;;;10.20;;
69754;SDS011;57023;52.218;5.158;2023-12-04T05:22:37;21.97;;;10.47;;
69754;SDS011;57023;52.218;5.158;2023-12-04T05:25:02;16.13;;;7.20;;
69754;SDS011;57023;52.218;5.158;2023-12-04T05:27:27;17.80;;;8.02;;
69754;SDS011;57023;52.218;5.158;2023-12-04T05:29:52;21.15;;;9.27;;
69754;SDS011;57023;52.218;5.158;2023-12-04T05:32:18;24.07;;;9.50;;
69754;SDS011;57023;52.218;5.158;2023-12-04T05:34:43;23.90;;;10.77;;
69754;SDS011;57023;52.218;5.158;2023-12-04T05:37:08;20.10;;;7.47;;
69754;SDS011;57023;52.218;5.158;2023-12-04T05:39:33;22.33;;;9.47;;
69754;SDS011;57023;52.218;5.158;2023-12-04T05:41:58;22.73;;;10.07;;
69754;SDS011;57023;52.218;5.158;2023-12-04T05:44:24;19.48;;;9.02;;
69754;SDS011;57023;52.218;5.158;2023-12-04T05:46:49;23.65;;;10.93;;
69754;SDS011;57023;52.218;5.158;2023-12-04T05:49:14;23.87;;;10.47;;
69754;SDS011;57023;52.218;5.158;2023-12-04T05:51:39;20.77;;;7.93;;
69754;SDS011;57023;52.218;5.158;2023-12-04T05:54:04;19.10;;;9.00;;
69754;SDS011;57023;52.218;5.158;2023-12-04T05:56:30;21.40;;;9.50;;
69754;SDS011;57023;52.218;5.158;2023-12-04T05:58:55;22.43;;;11.23;;
69754;SDS011;57023;52.218;5.158;2023-12-04T06:01:21;22.25;;;10.48;;
69754;SDS011;57023;52.218;5.158;2023-12-04T06:03:46;26.23;;;11.77;;
69754;SDS011;57023;52.218;5.158;2023-12-04T06:06:11;21.97;;;10.23;;
69754;SDS011;57023;52.218;5.158;2023-12-04T06:08:36;20.97;;;9.53;;
69754;SDS011;57023;52.218;5.158;2023-12-04T06:11:07;19.35;;;8.68;;
69754;SDS011;57023;52.218;5.158;2023-12-04T06:13:32;20.45;;;9.07;;
69754;SDS011;57023;52.218;5.158;2023-12-04T06:15:58;24.13;;;10.93;;
69754;SDS011;57023;52.218;5.158;2023-12-04T06:18:23;23.15;;;11.02;;
69754;SDS011;57023;52.218;5.158;2023-12-04T06:20:48;19.97;;;8.97;;
69754;SDS011;57023;52.218;5.158;2023-12-04T06:23:14;24.15;;;10.82;;
69754;SDS011;57023;52.218;5.158;2023-12-04T06:25:39;21.02;;;10.30;;
69754;SDS011;57023;52.218;5.158;2023-12-04T06:28:05;20.80;;;9.68;;
69754;SDS011;57023;52.218;5.158;2023-12-04T06:30:30;22.17;;;9.88;;
69754;SDS011;57023;52.218;5.158;2023-12-04T06:32:55;23.17;;;10.25;;
69754;SDS011;57023;52.218;5.158;2023-12-04T06:35:21;20.70;;;10.27;;
69754;SDS011;57023;52.218;5.158;2023-12-04T06:37:47;20.90;;;9.55;;
69754;SDS011;57023;52.218;5.158;2023-12-04T06:40:13;18.67;;;9.35;;
69754;SDS011;57023;52.218;5.158;2023-12-04T06:42:38;18.98;;;9.15;;
69754;SDS011;57023;52.218;5.158;2023-12-04T06:45:04;25.00;;;9.68;;
69754;SDS011;57023;52.218;5.158;2023-12-04T06:47:30;22.02;;;9.60;;
69754;SDS011;57023;52.218;5.158;2023-12-04T06:49:56;18.75;;;8.98;;
69754;SDS011;57023;52.218;5.158;2023-12-04T06:52:21;22.35;;;9.25;;
69754;SDS011;57023;52.218;5.158;2023-12-04T06:54:46;14.77;;;7.40;;
69754;SDS011;57023;52.218;5.158;2023-12-04T06:57:12;21.03;;;10.47;;
69754;SDS011;57023;52.218;5.158;2023-12-04T07:02:04;18.73;;;8.75;;
69754;SDS011;57023;52.218;5.158;2023-12-04T07:04:30;20.38;;;9.27;;
69754;SDS011;57023;52.218;5.158;2023-12-04T07:06:55;18.53;;;8.83;;
69754;SDS011;57023;52.218;5.158;2023-12-04T07:09:22;21.38;;;9.82;;
69754;SDS011;57023;52.218;5.158;2023-12-04T07:11:48;17.50;;;8.65;;
69754;SDS011;57023;52.218;5.158;2023-12-04T07:14:13;20.85;;;8.90;;
69754;SDS011;57023;52.218;5.158;2023-12-04T07:16:39;17.60;;;8.55;;
69754;SDS011;57023;52.218;5.158;2023-12-04T07:19:04;20.73;;;9.48;;
69754;SDS011;57023;52.218;5.158;2023-12-04T07:21:30;18.40;;;8.43;;
69754;SDS011;57023;52.218;5.158;2023-12-04T07:23:55;20.80;;;9.23;;
69754;SDS011;57023;52.218;5.158;2023-12-04T07:26:20;20.43;;;9.90;;
69754;SDS011;57023;52.218;5.158;2023-12-04T07:28:45;19.47;;;8.70;;
69754;SDS011;57023;52.218;5.158;2023-12-04T07:31:10;16.67;;;7.90;;
69754;SDS011;57023;52.218;5.158;2023-12-04T07:33:36;18.85;;;9.45;;
69754;SDS011;57023;52.218;5.158;2023-12-04T07:36:01;18.20;;;9.03;;
69754;SDS011;57023;52.218;5.158;2023-12-04T07:38:27;18.17;;;8.18;;
69754;SDS011;57023;52.218;5.158;2023-12-04T07:40:52;18.30;;;8.82;;
69754;SDS011;57023;52.218;5.158;2023-12-04T07:43:17;18.13;;;8.93;;
69754;SDS011;57023;52.218;5.158;2023-12-04T07:45:42;17.35;;;8.80;;
69754;SDS011;57023;52.218;5.158;2023-12-04T07:48:08;14.75;;;8.13;;
69754;SDS011;57023;52.218;5.158;2023-12-04T07:50:33;17.63;;;8.32;;
69754;SDS011;57023;52.218;5.158;2023-12-04T07:52:59;18.00;;;8.48;;
69754;SDS011;57023;52.218;5.158;2023-12-04T07:55:24;16.45;;;7.75;;
69754;SDS011;57023;52.218;5.158;2023-12-04T07:57:49;18.87;;;8.63;;
69754;SDS011;57023;52.218;5.158;2023-12-04T08:00:16;17.85;;;8.18;;
69754;SDS011;57023;52.218;5.158;2023-12-04T08:02:42;16.33;;;8.93;;
69754;SDS011;57023;52.218;5.158;2023-12-04T08:05:09;17.15;;;9.18;;
69754;SDS011;57023;52.218;5.158;2023-12-04T08:07:35;17.83;;;8.43;;
69754;SDS011;57023;52.218;5.158;2023-12-04T08:10:00;15.60;;;8.18;;
69754;SDS011;57023;52.218;5.158;2023-12-04T08:12:25;16.40;;;8.30;;
69754;SDS011;57023;52.218;5.158;2023-12-04T08:14:50;15.77;;;8.37;;
69754;SDS011;57023;52.218;5.158;2023-12-04T08:17:15;16.93;;;8.13;;
69754;SDS011;57023;52.218;5.158;2023-12-04T08:19:40;15.75;;;7.70;;
69754;SDS011;57023;52.218;5.158;2023-12-04T08:22:06;17.42;;;8.57;;
69754;SDS011;57023;52.218;5.158;2023-12-04T08:24:32;15.70;;;8.15;;
69754;SDS011;57023;52.218;5.158;2023-12-04T08:26:57;15.10;;;7.57;;
69754;SDS011;57023;52.218;5.158;2023-12-04T08:29:22;12.97;;;7.30;;
69754;SDS011;57023;52.218;5.158;2023-12-04T08:31:47;16.03;;;7.13;;
69754;SDS011;57023;52.218;5.158;2023-12-04T08:34:12;14.45;;;8.07;;
69754;SDS011;57023;52.218;5.158;2023-12-04T08:36:38;15.70;;;7.80;;
69754;SDS011;57023;52.218;5.158;2023-12-04T08:39:03;19.97;;;8.07;;
69754;SDS011;57023;52.218;5.158;2023-12-04T08:41:29;14.25;;;6.70;;
69754;SDS011;57023;52.218;5.158;2023-12-04T08:43:54;11.95;;;6.15;;
69754;SDS011;57023;52.218;5.158;2023-12-04T08:46:20;14.13;;;7.43;;
69754;SDS011;57023;52.218;5.158;2023-12-04T08:48:45;15.35;;;7.28;;
69754;SDS011;57023;52.218;5.158;2023-12-04T08:51:14;13.47;;;7.13;;
69754;SDS011;57023;52.218;5.158;2023-12-04T08:53:40;13.35;;;6.95;;
69754;SDS011;57023;52.218;5.158;2023-12-04T08:56:05;16.00;;;7.17;;
69754;SDS011;57023;52.218;5.158;2023-12-04T08:58:30;14.98;;;7.32;;
69754;SDS011;57023;52.218;5.158;2023-12-04T09:00:55;16.47;;;7.60;;
69754;SDS011;57023;52.218;5.158;2023-12-04T09:03:21;12.77;;;7.03;;
69754;SDS011;57023;52.218;5.158;2023-12-04T09:05:47;13.85;;;6.78;;
69754;SDS011;57023;52.218;5.158;2023-12-04T09:08:15;16.92;;;7.75;;
69754;SDS011;57023;52.218;5.158;2023-12-04T09:10:40;12.17;;;6.20;;
69754;SDS011;57023;52.218;5.158;2023-12-04T09:13:05;14.95;;;7.63;;
69754;SDS011;57023;52.218;5.158;2023-12-04T09:15:30;14.47;;;7.57;;
69754;SDS011;57023;52.218;5.158;2023-12-04T09:17:56;11.95;;;6.32;;
69754;SDS011;57023;52.218;5.158;2023-12-04T09:20:21;12.75;;;7.30;;
69754;SDS011;57023;52.218;5.158;2023-12-04T09:22:46;13.93;;;6.73;;
69754;SDS011;57023;52.218;5.158;2023-12-04T09:25:11;11.50;;;6.25;;
69754;SDS011;57023;52.218;5.158;2023-12-04T09:27:36;13.40;;;7.37;;
69754;SDS011;57023;52.218;5.158;2023-12-04T09:30:02;12.17;;;5.90;;
69754;SDS011;57023;52.218;5.158;2023-12-04T09:32:27;11.75;;;6.63;;
69754;SDS011;57023;52.218;5.158;2023-12-04T09:34:52;12.00;;;6.30;;
69754;SDS011;57023;52.218;5.158;2023-12-04T09:37:17;10.65;;;5.80;;
69754;SDS011;57023;52.218;5.158;2023-12-04T09:39:42;14.03;;;6.70;;
69754;SDS011;57023;52.218;5.158;2023-12-04T09:42:08;11.65;;;5.95;;
69754;SDS011;57023;52.218;5.158;2023-12-04T09:44:33;13.43;;;7.07;;
69754;SDS011;57023;52.218;5.158;2023-12-04T09:46:59;11.02;;;6.13;;
69754;SDS011;57023;52.218;5.158;2023-12-04T09:49:26;11.45;;;5.88;;
69754;SDS011;57023;52.218;5.158;2023-12-04T09:51:53;10.77;;;6.03;;
69754;SDS011;57023;52.218;5.158;2023-12-04T09:54:18;13.13;;;6.50;;
69754;SDS011;57023;52.218;5.158;2023-12-04T09:56:44;10.20;;;5.65;;
69754;SDS011;57023;52.218;5.158;2023-12-04T09:59:09;13.05;;;7.15;;
69754;SDS011;57023;52.218;5.158;2023-12-04T10:01:38;13.07;;;6.82;;
69754;SDS011;57023;52.218;5.158;2023-12-04T10:04:04;10.63;;;5.70;;
69754;SDS011;57023;52.218;5.158;2023-12-04T10:06:32;10.60;;;5.97;;
69754;SDS011;57023;52.218;5.158;2023-12-04T10:08:57;14.67;;;5.90;;
69754;SDS011;57023;52.218;5.158;2023-12-04T10:11:23;13.80;;;6.85;;
69754;SDS011;57023;52.218;5.158;2023-12-04T10:13:48;11.57;;;6.10;;
69754;SDS011;57023;52.218;5.158;2023-12-04T10:16:14;11.53;;;6.10;;
69754;SDS011;57023;52.218;5.158;2023-12-04T10:18:39;11.10;;;5.77;;
69754;SDS011;57023;52.218;5.158;2023-12-04T10:21:04;12.52;;;6.35;;
69754;SDS011;57023;52.218;5.158;2023-12-04T10:23:36;13.02;;;6.22;;
69754;SDS011;57023;52.218;5.158;2023-12-04T10:26:02;13.05;;;7.13;;
69754;SDS011;57023;52.218;5.158;2023-12-04T10:28:27;11.38;;;6.53;;
69754;SDS011;57023;52.218;5.158;2023-12-04T10:30:53;11.43;;;6.18;;
69754;SDS011;57023;52.218;5.158;2023-12-04T10:33:18;11.82;;;6.90;;
69754;SDS011;57023;52.218;5.158;2023-12-04T10:35:43;10.05;;;5.60;;
69754;SDS011;57023;52.218;5.158;2023-12-04T10:38:09;14.32;;;6.82;;
69754;SDS011;57023;52.218;5.158;2023-12-04T10:40:35;13.45;;;6.70;;
69754;SDS011;57023;52.218;5.158;2023-12-04T10:43:16;11.73;;;6.75;;
69754;SDS011;57023;52.218;5.158;2023-12-04T10:45:42;13.52;;;6.63;;
69754;SDS011;57023;52.218;5.158;2023-12-04T10:48:08;14.82;;;7.15;;
69754;SDS011;57023;52.218;5.158;2023-12-04T10:50:35;12.63;;;6.68;;
69754;SDS011;57023;52.218;5.158;2023-12-04T10:55:29;12.32;;;5.88;;
69754;SDS011;57023;52.218;5.158;2023-12-04T10:57:54;14.10;;;6.50;;
69754;SDS011;57023;52.218;5.158;2023-12-04T11:00:19;13.52;;;6.25;;
69754;SDS011;57023;52.218;5.158;2023-12-04T11:02:46;13.53;;;6.83;;
69754;SDS011;57023;52.218;5.158;2023-12-04T11:05:17;11.40;;;5.67;;
69754;SDS011;57023;52.218;5.158;2023-12-04T11:07:48;12.80;;;6.78;;
69754;SDS011;57023;52.218;5.158;2023-12-04T11:10:16;11.10;;;4.80;;
69754;SDS011;57023;52.218;5.158;2023-12-04T11:12:45;12.30;;;6.30;;
69754;SDS011;57023;52.218;5.158;2023-12-04T11:15:13;11.13;;;6.15;;
69754;SDS011;57023;52.218;5.158;2023-12-04T11:17:38;15.90;;;6.82;;
69754;SDS011;57023;52.218;5.158;2023-12-04T11:20:07;20.02;;;9.73;;
69754;SDS011;57023;52.218;5.158;2023-12-04T11:22:35;19.40;;;8.75;;
69754;SDS011;57023;52.218;5.158;2023-12-04T11:25:04;15.82;;;7.97;;
69754;SDS011;57023;52.218;5.158;2023-12-04T11:27:30;14.53;;;7.70;;
69754;SDS011;57023;52.218;5.158;2023-12-04T11:29:56;24.25;;;9.95;;
69754;SDS011;57023;52.218;5.158;2023-12-04T11:32:23;14.82;;;7.22;;
69754;SDS011;57023;52.218;5.158;2023-12-04T11:34:49;22.38;;;10.18;;
69754;SDS011;57023;52.218;5.158;2023-12-04T11:37:15;16.50;;;8.45;;
69754;SDS011;57023;52.218;5.158;2023-12-04T11:39:40;16.30;;;7.88;;
69754;SDS011;57023;52.218;5.158;2023-12-04T11:42:06;17.02;;;8.30;;
69754;SDS011;57023;52.218;5.158;2023-12-04T11:44:31;17.75;;;8.57;;
69754;SDS011;57023;52.218;5.158;2023-12-04T11:47:02;12.85;;;6.47;;
69754;SDS011;57023;52.218;5.158;2023-12-04T11:49:28;13.45;;;7.43;;
69754;SDS011;57023;52.218;5.158;2023-12-04T11:51:54;16.75;;;8.57;;
69754;SDS011;57023;52.218;5.158;2023-12-04T11:54:19;13.25;;;7.57;;
69754;SDS011;57023;52.218;5.158;2023-12-04T11:59:21;13.02;;;7.63;;
69754;SDS011;57023;52.218;5.158;2023-12-04T12:01:49;12.63;;;7.00;;
69754;SDS011;57023;52.218;5.158;2023-12-04T12:04:15;15.88;;;8.40;;
69754;SDS011;57023;52.218;5.158;2023-12-04T12:06:42;13.73;;;7.82;;
69754;SDS011;57023;52.218;5.158;2023-12-04T12:09:07;15.95;;;7.70;;
69754;SDS011;57023;52.218;5.158;2023-12-04T12:11:32;14.82;;;7.75;;
69754;SDS011;57023;52.218;5.158;2023-12-04T12:13:59;14.27;;;8.20;;
69754;SDS011;57023;52.218;5.158;2023-12-04T12:16:24;15.80;;;8.35;;
69754;SDS011;57023;52.218;5.158;2023-12-04T12:18:50;12.80;;;7.40;;
69754;SDS011;57023;52.218;5.158;2023-12-04T12:21:16;15.63;;;8.40;;
69754;SDS011;57023;52.218;5.158;2023-12-04T12:23:41;15.80;;;8.10;;
69754;SDS011;57023;52.218;5.158;2023-12-04T12:26:06;15.93;;;8.90;;
69754;SDS011;57023;52.218;5.158;2023-12-04T12:28:34;15.45;;;8.77;;
69754;SDS011;57023;52.218;5.158;2023-12-04T12:31:03;15.77;;;8.50;;
69754;SDS011;57023;52.218;5.158;2023-12-04T12:33:28;16.90;;;9.07;;
69754;SDS011;57023;52.218;5.158;2023-12-04T12:35:53;17.47;;;9.57;;
69754;SDS011;57023;52.218;5.158;2023-12-04T12:38:18;15.15;;;8.70;;
69754;SDS011;57023;52.218;5.158;2023-12-04T12:40:44;16.92;;;9.50;;
69754;SDS011;57023;52.218;5.158;2023-12-04T12:43:09;14.57;;;7.67;;
69754;SDS011;57023;52.218;5.158;2023-12-04T12:45:43;16.40;;;8.77;;
69754;SDS011;57023;52.218;5.158;2023-12-04T12:48:12;16.25;;;8.93;;
69754;SDS011;57023;52.218;5.158;2023-12-04T12:50:37;19.45;;;9.95;;
69754;SDS011;57023;52.218;5.158;2023-12-04T12:53:03;16.33;;;8.82;;
69754;SDS011;57023;52.218;5.158;2023-12-04T12:55:28;15.13;;;9.30;;
69754;SDS011;57023;52.218;5.158;2023-12-04T12:57:56;17.70;;;9.83;;
69754;SDS011;57023;52.218;5.158;2023-12-04T13:00:22;16.67;;;8.77;;
69754;SDS011;57023;52.218;5.158;2023-12-04T13:02:48;16.42;;;8.48;;
69754;SDS011;57023;52.218;5.158;2023-12-04T13:05:13;16.85;;;8.70;;
69754;SDS011;57023;52.218;5.158;2023-12-04T13:07:38;19.33;;;8.93;;
69754;SDS011;57023;52.218;5.158;2023-12-04T13:10:03;18.20;;;8.03;;
69754;SDS011;57023;52.218;5.158;2023-12-04T13:12:30;17.95;;;9.88;;
69754;SDS011;57023;52.218;5.158;2023-12-04T13:14:55;17.30;;;10.30;;
69754;SDS011;57023;52.218;5.158;2023-12-04T13:17:20;16.07;;;9.20;;
69754;SDS011;57023;52.218;5.158;2023-12-04T13:19:45;17.63;;;9.77;;
69754;SDS011;57023;52.218;5.158;2023-12-04T13:22:10;18.77;;;9.57;;
69754;SDS011;57023;52.218;5.158;2023-12-04T13:24:38;18.27;;;9.30;;
69754;SDS011;57023;52.218;5.158;2023-12-04T13:27:06;18.58;;;8.80;;
69754;SDS011;57023;52.218;5.158;2023-12-04T13:29:31;16.23;;;8.30;;
69754;SDS011;57023;52.218;5.158;2023-12-04T13:31:56;17.03;;;9.37;;
69754;SDS011;57023;52.218;5.158;2023-12-04T13:34:21;16.23;;;9.37;;
69754;SDS011;57023;52.218;5.158;2023-12-04T13:36:47;14.25;;;7.65;;
69754;SDS011;57023;52.218;5.158;2023-12-04T13:39:12;18.57;;;9.43;;
69754;SDS011;57023;52.218;5.158;2023-12-04T13:41:51;17.35;;;9.25;;
69754;SDS011;57023;52.218;5.158;2023-12-04T13:44:35;17.05;;;9.30;;
69754;SDS011;57023;52.218;5.158;2023-12-04T13:47:00;16.23;;;8.80;;
69754;SDS011;57023;52.218;5.158;2023-12-04T13:49:26;17.27;;;8.85;;
69754;SDS011;57023;52.218;5.158;2023-12-04T13:51:51;17.63;;;9.40;;
69754;SDS011;57023;52.218;5.158;2023-12-04T13:54:18;18.27;;;9.43;;
69754;SDS011;57023;52.218;5.158;2023-12-04T13:56:47;18.25;;;9.80;;
69754;SDS011;57023;52.218;5.158;2023-12-04T13:59:21;18.40;;;9.60;;
69754;SDS011;57023;52.218;5.158;2023-12-04T14:01:47;20.35;;;10.00;;
69754;SDS011;57023;52.218;5.158;2023-12-04T14:04:12;18.70;;;9.75;;
69754;SDS011;57023;52.218;5.158;2023-12-04T14:06:37;17.45;;;8.85;;
69754;SDS011;57023;52.218;5.158;2023-12-04T14:09:02;18.30;;;9.07;;
69754;SDS011;57023;52.218;5.158;2023-12-04T14:11:34;18.63;;;8.63;;
69754;SDS011;57023;52.218;5.158;2023-12-04T14:14:00;20.47;;;10.30;;
69754;SDS011;57023;52.218;5.158;2023-12-04T14:16:25;17.57;;;9.73;;
69754;SDS011;57023;52.218;5.158;2023-12-04T14:18:50;19.33;;;10.33;;
69754;SDS011;57023;52.218;5.158;2023-12-04T14:21:15;17.20;;;8.30;;
69754;SDS011;57023;52.218;5.158;2023-12-04T14:23:40;22.15;;;10.45;;
69754;SDS011;57023;52.218;5.158;2023-12-04T14:26:05;18.93;;;9.97;;